createdAt,value
2018-12-11T00:00:36.885Z,13.00
2018-12-11T00:03:06.161Z,9.30
2018-12-11T00:05:35.399Z,7.13
2018-12-11T00:08:04.883Z,11.77
2018-12-11T00:10:34.084Z,13.70
2018-12-11T00:13:03.216Z,15.87
2018-12-11T00:15:33.065Z,14.20
2018-12-11T00:18:02.385Z,13.73
2018-12-11T00:20:31.630Z,9.80
2018-12-11T00:23:01.101Z,12.60
2018-12-11T00:25:33.143Z,10.30
2018-12-11T00:28:02.508Z,11.17
2018-12-11T00:30:32.256Z,17.70
2018-12-11T00:33:01.418Z,12.80
2018-12-11T00:35:30.628Z,11.33
2018-12-11T00:37:59.888Z,9.50
2018-12-11T00:40:29.079Z,10.60
2018-12-11T00:42:58.244Z,10.37
2018-12-11T00:45:27.866Z,12.10
2018-12-11T00:47:57.065Z,15.53
2018-12-11T00:50:26.873Z,10.00
2018-12-11T00:52:55.985Z,8.00
2018-12-11T00:55:25.578Z,10.80
2018-12-11T00:57:54.672Z,7.40
2018-12-11T01:00:24.030Z,12.17
2018-12-11T01:02:53.211Z,15.17
2018-12-11T01:05:22.472Z,8.03
2018-12-11T01:07:51.617Z,10.53
2018-12-11T01:10:20.940Z,8.37
2018-12-11T01:12:50.343Z,9.00
2018-12-11T01:15:19.481Z,8.77
2018-12-11T01:17:48.580Z,7.90
2018-12-11T01:20:17.741Z,10.83
2018-12-11T01:22:46.924Z,10.20
2018-12-11T01:25:16.585Z,9.67
2018-12-11T01:27:45.817Z,5.90
2018-12-11T01:30:15.030Z,6.67
2018-12-11T01:32:44.177Z,8.77
2018-12-11T01:35:13.440Z,4.20
2018-12-11T01:37:42.563Z,6.67
2018-12-11T01:40:11.797Z,5.90
2018-12-11T01:42:41.022Z,6.83
2018-12-11T01:45:10.212Z,4.73
2018-12-11T01:47:39.432Z,5.70
2018-12-11T01:50:08.801Z,5.17
2018-12-11T01:52:38.014Z,7.80
2018-12-11T01:55:07.236Z,3.57
2018-12-11T01:57:36.484Z,7.73
2018-12-11T02:00:08.391Z,3.43
2018-12-11T02:02:37.997Z,2.93
2018-12-11T02:05:07.395Z,11.73
2018-12-11T02:07:36.633Z,8.40
2018-12-11T02:10:06.077Z,2.70
2018-12-11T02:12:35.239Z,6.80
2018-12-11T02:15:06.596Z,3.93
2018-12-11T02:17:35.840Z,4.13
2018-12-11T02:20:06.246Z,3.83
2018-12-11T02:22:35.627Z,3.10
2018-12-11T02:25:05.204Z,6.97
2018-12-11T02:27:39.937Z,3.10
2018-12-11T02:30:09.253Z,4.67
2018-12-11T02:32:38.584Z,3.13
2018-12-11T02:35:09.479Z,6.43
2018-12-11T02:37:38.569Z,6.77
2018-12-11T02:40:09.197Z,2.87
2018-12-11T02:42:38.377Z,8.60
2018-12-11T02:45:07.732Z,3.73
2018-12-11T02:47:36.876Z,10.37
2018-12-11T02:50:08.879Z,5.03
2018-12-11T02:52:38.085Z,4.20
2018-12-11T02:55:07.345Z,2.33
2018-12-11T02:57:36.481Z,3.27
2018-12-11T03:00:08.575Z,4.07
2018-12-11T03:02:37.691Z,3.63
2018-12-11T03:05:07.001Z,4.53
2018-12-11T03:07:36.613Z,3.40
2018-12-11T03:10:07.176Z,5.47
2018-12-11T03:12:36.511Z,6.47
2018-12-11T03:15:06.915Z,3.60
2018-12-11T03:17:36.112Z,2.93
2018-12-11T03:20:06.141Z,4.57
2018-12-11T03:22:35.360Z,4.83
2018-12-11T03:25:04.713Z,7.27
2018-12-11T03:27:37.516Z,2.70
2018-12-11T03:30:06.873Z,5.57
2018-12-11T03:32:36.103Z,8.60
2018-12-11T03:35:05.752Z,4.70
2018-12-11T03:37:35.552Z,2.87
2018-12-11T03:40:05.552Z,5.77
2018-12-11T03:42:34.650Z,9.43
2018-12-11T03:45:04.244Z,6.60
2018-12-11T03:50:15.110Z,8.37
2018-12-11T03:52:44.222Z,4.93
2018-12-11T03:55:13.751Z,3.63
2018-12-11T03:57:42.857Z,4.07
2018-12-11T04:00:12.234Z,10.00
2018-12-11T04:02:41.387Z,2.60
2018-12-11T04:05:10.777Z,3.50
2018-12-11T04:07:39.927Z,2.83
2018-12-11T04:10:10.161Z,2.80
2018-12-11T04:12:39.461Z,2.40
2018-12-11T04:15:09.615Z,5.13
2018-12-11T04:17:39.181Z,5.50
2018-12-11T04:20:09.013Z,3.67
2018-12-11T04:22:38.249Z,2.57
2018-12-11T04:25:07.964Z,3.97
2018-12-11T04:27:37.238Z,3.30
2018-12-11T04:30:09.444Z,3.43
2018-12-11T04:32:38.590Z,4.13
2018-12-11T04:35:08.420Z,2.70
2018-12-11T04:37:37.922Z,5.27
2018-12-11T04:40:07.641Z,6.13
2018-12-11T04:42:37.642Z,3.30
2018-12-11T04:45:07.660Z,3.10
2018-12-11T04:47:36.892Z,5.63
2018-12-11T04:50:06.557Z,4.10
2018-12-11T04:52:35.927Z,3.90
2018-12-11T04:55:06.237Z,9.10
2018-12-11T04:57:35.386Z,8.20
2018-12-11T05:00:05.364Z,4.93
2018-12-11T05:02:34.514Z,6.80
2018-12-11T05:05:04.008Z,4.43
2018-12-11T05:07:33.283Z,4.10
2018-12-11T05:10:02.421Z,2.90
2018-12-11T05:12:31.635Z,5.17
2018-12-11T05:15:00.848Z,6.83
2018-12-11T05:17:30.459Z,3.07
2018-12-11T05:19:59.639Z,5.07
2018-12-11T05:22:28.814Z,2.40
2018-12-11T05:24:57.969Z,6.80
2018-12-11T05:27:27.105Z,7.57
2018-12-11T05:29:56.244Z,8.60
2018-12-11T05:32:25.416Z,5.93
2018-12-11T05:34:54.564Z,5.10
2018-12-11T05:37:24.760Z,8.43
2018-12-11T05:39:53.925Z,12.23
2018-12-11T05:42:23.069Z,5.20
2018-12-11T05:44:52.224Z,6.90
2018-12-11T05:47:21.427Z,6.50
2018-12-11T05:49:50.692Z,7.23
2018-12-11T05:52:20.016Z,4.70
2018-12-11T05:54:49.439Z,6.03
2018-12-11T05:57:19.183Z,4.60
2018-12-11T05:59:48.376Z,8.07
2018-12-11T06:02:17.564Z,5.30
2018-12-11T06:04:46.772Z,9.93
2018-12-11T06:07:15.903Z,4.20
2018-12-11T06:09:45.208Z,10.53
2018-12-11T06:12:17.415Z,6.57
2018-12-11T06:14:46.626Z,5.33
2018-12-11T06:17:15.873Z,6.77
2018-12-11T06:19:45.099Z,17.03
2018-12-11T06:22:14.292Z,4.80
2018-12-11T06:24:43.518Z,9.50
2018-12-11T06:27:12.747Z,5.30
2018-12-11T06:29:42.585Z,11.70
2018-12-11T06:32:11.789Z,6.40
2018-12-11T06:34:40.960Z,7.33
2018-12-11T06:37:10.112Z,4.60
2018-12-11T06:39:39.684Z,6.20
2018-12-11T06:42:08.968Z,3.50
2018-12-11T06:44:38.100Z,3.10
2018-12-11T06:47:07.292Z,7.63
2018-12-11T06:49:36.991Z,6.37
2018-12-11T06:52:06.288Z,5.93
2018-12-11T06:54:35.735Z,8.47
2018-12-11T06:57:05.092Z,8.87
2018-12-11T06:59:34.205Z,5.53
2018-12-11T07:02:03.428Z,8.60
2018-12-11T07:04:33.459Z,5.23
2018-12-11T07:07:02.574Z,4.97
2018-12-11T07:09:32.211Z,7.43
2018-12-11T07:12:01.361Z,5.50
2018-12-11T07:14:30.512Z,7.57
2018-12-11T07:16:59.636Z,7.80
2018-12-11T07:19:28.759Z,6.37
2018-12-11T07:21:57.965Z,5.20
2018-12-11T07:24:27.620Z,8.43
2018-12-11T07:26:56.852Z,11.23
2018-12-11T07:29:26.093Z,7.03
2018-12-11T07:31:56.410Z,4.80
2018-12-11T07:34:25.636Z,9.73
2018-12-11T07:36:54.884Z,7.17
2018-12-11T07:39:24.007Z,9.43
2018-12-11T07:41:53.672Z,7.00
2018-12-11T07:44:22.898Z,8.70
2018-12-11T07:46:52.292Z,6.43
2018-12-11T07:49:21.889Z,9.07
2018-12-11T07:51:51.175Z,11.70
2018-12-11T07:54:20.378Z,8.30
2018-12-11T07:56:49.527Z,9.90
2018-12-11T07:59:19.108Z,15.00
2018-12-11T08:01:48.375Z,14.20
2018-12-11T08:04:17.593Z,19.07
2018-12-11T08:06:46.720Z,5.10
2018-12-11T08:09:16.261Z,8.77
2018-12-11T08:11:45.470Z,7.10
2018-12-11T08:14:14.630Z,9.17
2018-12-11T08:16:44.445Z,11.10
2018-12-11T08:19:13.716Z,6.67
2018-12-11T08:21:42.936Z,12.80
2018-12-11T08:24:12.468Z,6.20
2018-12-11T08:26:41.616Z,5.87
2018-12-11T08:29:10.903Z,4.87
2018-12-11T08:31:40.095Z,6.90
2018-12-11T08:34:09.232Z,5.77
2018-12-11T08:36:38.344Z,9.67
2018-12-11T08:39:08.147Z,6.17
2018-12-11T08:41:37.756Z,11.73
2018-12-11T08:44:06.888Z,9.57
2018-12-11T08:46:36.110Z,13.17
2018-12-11T08:49:05.333Z,10.83
2018-12-11T08:51:34.552Z,12.70
2018-12-11T08:54:03.693Z,6.13
2018-12-11T08:56:32.954Z,6.60
2018-12-11T08:59:06.577Z,9.90
2018-12-11T09:01:33.253Z,5.87
2018-12-11T09:04:02.411Z,9.93
2018-12-11T09:06:31.565Z,5.30
2018-12-11T09:09:01.649Z,12.93
2018-12-11T09:11:30.831Z,4.63
2018-12-11T09:14:00.111Z,7.23
2018-12-11T09:16:29.316Z,6.60
2018-12-11T09:18:58.458Z,9.90
2018-12-11T09:21:27.605Z,15.07
2018-12-11T09:23:57.377Z,9.80
2018-12-11T09:26:26.612Z,10.10
2018-12-11T09:28:56.176Z,7.50
2018-12-11T09:31:25.324Z,12.90
2018-12-11T09:33:54.489Z,9.80
2018-12-11T09:36:23.727Z,8.90
2018-12-11T09:38:53.023Z,6.03
2018-12-11T09:41:22.144Z,5.50
2018-12-11T09:43:51.301Z,9.30
2018-12-11T09:46:20.644Z,7.10
2018-12-11T09:48:49.807Z,8.53
2018-12-11T09:51:19.060Z,14.23
2018-12-11T09:53:48.224Z,7.80
2018-12-11T09:56:18.171Z,12.27
2018-12-11T09:58:47.393Z,8.37
2018-12-11T10:01:16.644Z,10.87
2018-12-11T10:03:45.829Z,8.60
2018-12-11T10:06:15.051Z,4.77
2018-12-11T10:08:44.265Z,10.10
2018-12-11T10:11:13.633Z,5.80
2018-12-11T10:13:42.875Z,6.13
2018-12-11T10:16:12.039Z,11.10
2018-12-11T10:18:41.622Z,7.03
2018-12-11T10:21:10.871Z,5.40
2018-12-11T10:23:40.602Z,4.03
2018-12-11T10:26:09.962Z,7.33
2018-12-11T10:28:39.932Z,10.93
2018-12-11T10:31:09.138Z,3.17
2018-12-11T10:33:38.337Z,4.60
2018-12-11T10:36:07.860Z,6.67
2018-12-11T10:38:37.606Z,7.33
2018-12-11T10:41:06.923Z,4.03
2018-12-11T10:43:36.109Z,5.03
2018-12-11T10:46:05.876Z,6.80
2018-12-11T10:48:35.107Z,4.60
2018-12-11T10:51:04.376Z,5.07
2018-12-11T10:53:33.528Z,3.90
2018-12-11T10:56:02.684Z,7.57
2018-12-11T10:58:32.033Z,4.57
2018-12-11T11:01:06.578Z,5.73
2018-12-11T11:03:35.840Z,5.00
2018-12-11T11:06:05.210Z,3.90
2018-12-11T11:08:34.384Z,4.23
2018-12-11T11:11:03.642Z,13.33
2018-12-11T11:13:32.877Z,4.50
2018-12-11T11:16:02.189Z,10.93
2018-12-11T11:18:31.969Z,5.10
2018-12-11T11:21:01.617Z,3.80
2018-12-11T11:23:32.564Z,2.50
2018-12-11T11:26:01.753Z,4.50
2018-12-11T11:28:30.877Z,7.03
2018-12-11T11:31:00.660Z,2.13
2018-12-11T11:33:29.943Z,4.57
2018-12-11T11:35:59.216Z,6.07
2018-12-11T11:38:28.710Z,12.53
2018-12-11T11:40:58.392Z,5.77
2018-12-11T11:43:27.535Z,6.80
2018-12-11T11:45:56.767Z,6.50
2018-12-11T11:48:25.900Z,6.13
2018-12-11T11:50:55.242Z,5.23
2018-12-11T11:53:24.683Z,4.20
2018-12-11T11:55:54.008Z,4.53
2018-12-11T11:58:23.711Z,5.40
2018-12-11T12:00:53.517Z,5.70
2018-12-11T12:03:22.695Z,3.57
2018-12-11T12:05:51.980Z,3.73
2018-12-11T12:08:21.664Z,8.83
2018-12-11T12:10:50.894Z,4.03
2018-12-11T12:13:20.094Z,6.53
2018-12-11T12:15:50.377Z,7.07
2018-12-11T12:18:19.616Z,11.10
2018-12-11T12:20:48.835Z,3.37
2018-12-11T12:23:18.108Z,7.43
2018-12-11T12:25:47.371Z,3.60
2018-12-11T12:28:16.558Z,6.60
2018-12-11T12:33:25.825Z,9.07
2018-12-11T12:35:55.034Z,11.73
2018-12-11T12:38:24.204Z,16.97
2018-12-11T12:40:53.449Z,6.70
2018-12-11T12:43:22.763Z,3.10
2018-12-11T12:45:52.797Z,4.70
2018-12-11T12:48:22.178Z,4.83
2018-12-11T12:50:51.393Z,5.53
2018-12-11T12:53:20.627Z,8.03
2018-12-11T12:55:49.821Z,4.40
2018-12-11T12:58:19.812Z,6.53
2018-12-11T13:00:49.368Z,3.93
2018-12-11T13:03:18.988Z,4.37
2018-12-11T13:05:48.176Z,35.77
2018-12-11T13:08:17.337Z,8.10
2018-12-11T13:10:46.509Z,15.57
2018-12-11T13:13:15.649Z,10.47
2018-12-11T13:15:44.942Z,7.97
2018-12-11T13:18:14.621Z,7.67
2018-12-11T13:20:43.848Z,6.50
2018-12-11T13:23:13.083Z,3.43
2018-12-11T13:25:42.300Z,3.47
2018-12-11T13:28:11.611Z,6.30
2018-12-11T13:30:40.997Z,5.53
2018-12-11T13:33:10.225Z,7.27
2018-12-11T13:35:39.629Z,6.10
2018-12-11T13:38:08.908Z,3.20
2018-12-11T13:40:38.705Z,6.70
2018-12-11T13:43:08.596Z,7.50
2018-12-11T13:45:37.793Z,3.43
2018-12-11T13:48:08.388Z,5.10
2018-12-11T13:50:37.674Z,7.43
2018-12-11T13:53:06.800Z,3.40
2018-12-11T13:55:35.968Z,5.63
2018-12-11T13:58:05.136Z,5.20
2018-12-11T14:00:34.424Z,10.00
2018-12-11T14:03:04.012Z,5.27
2018-12-11T14:05:33.266Z,11.20
2018-12-11T14:08:03.029Z,5.73
2018-12-11T14:10:32.736Z,4.57
2018-12-11T14:13:01.861Z,9.63
2018-12-11T14:15:31.028Z,10.40
2018-12-11T14:18:01.189Z,13.63
2018-12-11T14:20:31.101Z,20.10
2018-12-11T14:23:00.385Z,14.00
2018-12-11T14:25:29.644Z,4.97
2018-12-11T14:27:59.019Z,4.93
2018-12-11T14:30:28.193Z,8.07
2018-12-11T14:32:58.144Z,5.13
2018-12-11T14:35:27.819Z,7.93
2018-12-11T14:37:57.015Z,7.30
2018-12-11T14:40:26.200Z,7.00
2018-12-11T14:42:55.375Z,7.93
2018-12-11T14:45:25.339Z,5.67
2018-12-11T14:47:54.981Z,9.43
2018-12-11T14:50:24.175Z,7.20
2018-12-11T14:52:54.006Z,12.00
2018-12-11T14:55:23.249Z,7.97
2018-12-11T14:57:52.456Z,12.17
2018-12-11T15:00:22.149Z,4.00
2018-12-11T15:02:51.496Z,3.50
2018-12-11T15:05:20.868Z,7.80
2018-12-11T15:07:50.116Z,5.17
2018-12-11T15:10:19.364Z,6.60
2018-12-11T15:12:49.189Z,8.27
2018-12-11T15:15:18.317Z,4.80
2018-12-11T15:17:47.460Z,6.80
2018-12-11T15:20:16.636Z,7.63
2018-12-11T15:22:46.305Z,4.37
2018-12-11T15:25:16.970Z,3.50
2018-12-11T15:27:46.136Z,4.67
2018-12-11T15:30:15.443Z,3.13
2018-12-11T15:32:44.601Z,5.27
2018-12-11T15:35:14.173Z,8.73
2018-12-11T15:37:43.467Z,5.03
2018-12-11T15:40:13.309Z,4.73
2018-12-11T15:42:42.556Z,7.00
2018-12-11T15:45:11.968Z,4.00
2018-12-11T15:47:41.579Z,4.70
2018-12-11T15:50:10.976Z,5.57
2018-12-11T15:52:40.572Z,5.07
2018-12-11T15:55:10.372Z,7.00
2018-12-11T15:57:39.585Z,7.00
2018-12-11T16:00:11.509Z,8.07
2018-12-11T16:02:40.697Z,4.57
2018-12-11T16:05:10.297Z,5.90
2018-12-11T16:07:39.540Z,9.80
2018-12-11T16:10:09.259Z,5.80
2018-12-11T16:12:40.436Z,4.33
2018-12-11T16:15:09.659Z,4.17
2018-12-11T16:17:38.834Z,2.60
2018-12-11T16:20:08.169Z,6.50
2018-12-11T16:22:37.353Z,5.70
2018-12-11T16:25:07.584Z,8.63
2018-12-11T16:27:37.190Z,8.83
2018-12-11T16:30:06.988Z,12.87
2018-12-11T16:32:36.303Z,10.17
2018-12-11T16:35:06.264Z,4.43
2018-12-11T16:37:36.081Z,7.63
2018-12-11T16:40:06.281Z,6.07
2018-12-11T16:42:35.507Z,6.10
2018-12-11T16:45:06.085Z,7.13
2018-12-11T16:47:35.275Z,6.60
2018-12-11T16:50:04.940Z,9.27
2018-12-11T16:52:34.192Z,13.10
2018-12-11T16:55:04.083Z,4.63
2018-12-11T16:57:34.446Z,6.93
2018-12-11T17:00:03.909Z,12.30
2018-12-11T17:02:33.361Z,10.60
2018-12-11T17:05:02.544Z,8.20
2018-12-11T17:07:31.860Z,8.30
2018-12-11T17:10:01.693Z,12.30
2018-12-11T17:12:31.639Z,9.20
2018-12-11T17:15:02.366Z,6.47
2018-12-11T17:17:32.252Z,11.47
2018-12-11T17:20:01.440Z,7.37
2018-12-11T17:22:30.572Z,7.23
2018-12-11T17:24:59.777Z,7.40
2018-12-11T17:27:28.891Z,6.67
2018-12-11T17:29:58.021Z,8.77
2018-12-11T17:32:27.140Z,8.37
2018-12-11T17:34:56.920Z,7.40
2018-12-11T17:37:26.043Z,14.80
2018-12-11T17:39:55.673Z,7.53
2018-12-11T17:42:24.931Z,12.37
2018-12-11T17:44:54.159Z,9.70
2018-12-11T17:47:23.812Z,12.63
2018-12-11T17:49:53.028Z,9.20
2018-12-11T17:52:22.248Z,10.03
2018-12-11T17:54:51.391Z,10.23
2018-12-11T17:57:20.511Z,11.50
2018-12-11T17:59:49.881Z,9.97
2018-12-11T18:05:08.948Z,10.70
2018-12-11T18:07:38.146Z,20.57
2018-12-11T18:10:08.684Z,11.20
2018-12-11T18:12:37.804Z,19.30
2018-12-11T18:15:07.210Z,23.27
2018-12-11T18:17:36.424Z,14.33
2018-12-11T18:20:06.843Z,10.90
2018-12-11T18:22:36.748Z,13.73
2018-12-11T18:25:06.601Z,11.97
2018-12-11T18:27:35.852Z,12.00
2018-12-11T18:30:07.052Z,10.63
2018-12-11T18:32:36.473Z,10.53
2018-12-11T18:37:48.811Z,12.17
2018-12-11T18:40:18.492Z,21.10
2018-12-11T18:42:47.616Z,15.07
2018-12-11T18:45:16.815Z,20.50
2018-12-11T18:47:49.972Z,11.37
2018-12-11T18:50:21.413Z,13.60
2018-12-11T18:52:48.388Z,13.27
2018-12-11T18:55:17.747Z,11.90
2018-12-11T18:57:46.932Z,18.60
2018-12-11T19:00:16.922Z,22.90
2018-12-11T19:02:46.290Z,11.10
2018-12-11T19:05:15.514Z,10.27
2018-12-11T19:07:44.691Z,10.67
2018-12-11T19:10:13.971Z,10.73
2018-12-11T19:12:43.124Z,12.20
2018-12-11T19:15:12.336Z,15.07
2018-12-11T19:17:41.580Z,14.77
2018-12-11T19:20:10.789Z,15.57
2018-12-11T19:22:39.904Z,11.70
2018-12-11T19:25:15.088Z,13.90
2018-12-11T19:27:44.276Z,19.77
2018-12-11T19:30:13.620Z,9.30
2018-12-11T19:32:42.779Z,11.60
2018-12-11T19:35:12.094Z,11.07
2018-12-11T19:37:41.232Z,11.40
2018-12-11T19:40:10.953Z,11.53
2018-12-11T19:42:41.393Z,10.43
2018-12-11T19:45:10.743Z,7.00
2018-12-11T19:47:39.845Z,5.93
2018-12-11T19:50:09.527Z,11.53
2018-12-11T19:52:39.920Z,24.27
2018-12-11T19:55:10.323Z,16.80
2018-12-11T19:57:39.524Z,13.20
2018-12-11T20:00:09.736Z,13.07
2018-12-11T20:02:38.916Z,10.30
2018-12-11T20:05:08.252Z,25.40
2018-12-11T20:07:38.485Z,15.70
2018-12-11T20:10:13.104Z,15.20
2018-12-11T20:12:42.337Z,39.63
2018-12-11T20:15:11.513Z,15.30
2018-12-11T20:17:40.720Z,17.33
2018-12-11T20:23:00.987Z,16.60
2018-12-11T20:25:30.204Z,20.20
2018-12-11T20:27:59.994Z,18.93
2018-12-11T20:30:29.225Z,18.57
2018-12-11T20:33:01.966Z,23.90
2018-12-11T20:35:31.572Z,15.50
2018-12-11T20:38:00.792Z,23.83
2018-12-11T20:40:30.598Z,15.93
2018-12-11T20:43:01.336Z,23.97
2018-12-11T20:45:30.572Z,16.95
2018-12-11T20:47:59.808Z,24.43
2018-12-11T20:50:28.964Z,19.20
2018-12-11T20:52:58.119Z,22.57
2018-12-11T20:55:27.315Z,19.03
2018-12-11T20:57:56.448Z,23.43
2018-12-11T21:00:27.714Z,21.40
2018-12-11T21:02:57.368Z,25.20
2018-12-11T21:05:26.529Z,23.87
2018-12-11T21:07:55.714Z,27.60
2018-12-11T21:10:24.892Z,20.30
2018-12-11T21:12:54.135Z,23.00
2018-12-11T21:15:23.803Z,21.83
2018-12-11T21:17:52.980Z,18.10
2018-12-11T21:20:22.134Z,20.83
2018-12-11T21:22:51.340Z,27.10
2018-12-11T21:25:20.952Z,16.20
2018-12-11T21:27:50.180Z,33.50
2018-12-11T21:30:20.147Z,26.47
2018-12-11T21:32:49.316Z,27.30
2018-12-11T21:35:19.018Z,25.60
2018-12-11T21:37:48.164Z,27.97
2018-12-11T21:40:17.361Z,23.37
2018-12-11T21:42:46.501Z,23.07
2018-12-11T21:45:16.333Z,27.20
2018-12-11T21:47:45.496Z,26.17
2018-12-11T21:50:14.948Z,27.27
2018-12-11T21:52:44.118Z,25.10
2018-12-11T21:55:14.024Z,27.73
2018-12-11T21:57:43.185Z,30.67
2018-12-11T22:00:12.761Z,34.92
2018-12-11T22:02:42.409Z,27.87
2018-12-11T22:05:11.686Z,33.93
2018-12-11T22:07:40.911Z,30.27
2018-12-11T22:10:10.240Z,34.70
2018-12-11T22:12:42.376Z,34.70
2018-12-11T22:15:12.338Z,41.83
2018-12-11T22:17:42.067Z,37.95
2018-12-11T22:20:11.412Z,27.17
2018-12-11T22:22:40.836Z,30.97
2018-12-11T22:25:10.151Z,32.97
2018-12-11T22:27:39.387Z,49.93
2018-12-11T22:30:08.771Z,49.83
2018-12-11T22:32:38.892Z,48.33
2018-12-11T22:35:08.206Z,39.90
2018-12-11T22:37:37.378Z,34.70
2018-12-11T22:40:07.967Z,42.63
2018-12-11T22:42:37.263Z,31.60
2018-12-11T22:45:07.070Z,40.97
2018-12-11T22:47:36.239Z,41.77
2018-12-11T22:50:06.226Z,39.13
2018-12-11T22:52:35.909Z,48.10
2018-12-11T22:55:05.692Z,37.63
2018-12-11T22:57:34.858Z,38.20
2018-12-11T23:00:06.474Z,31.10
2018-12-11T23:02:35.771Z,39.23
2018-12-11T23:05:05.815Z,53.75
2018-12-11T23:07:35.067Z,31.80
2018-12-11T23:10:04.513Z,42.17
2018-12-11T23:12:33.733Z,38.10
2018-12-11T23:15:02.911Z,29.53
2018-12-11T23:17:32.261Z,30.33
2018-12-11T23:20:01.425Z,36.57
2018-12-11T23:22:30.536Z,28.73
2018-12-11T23:24:59.912Z,34.20
2018-12-11T23:27:29.110Z,26.20
2018-12-11T23:29:58.263Z,34.20
2018-12-11T23:32:27.487Z,40.63
2018-12-11T23:34:57.557Z,33.87
2018-12-11T23:37:26.657Z,37.83
2018-12-11T23:39:55.827Z,30.87
2018-12-11T23:42:25.129Z,20.23
2018-12-11T23:44:54.338Z,28.87
2018-12-11T23:47:23.552Z,29.43
2018-12-11T23:49:52.691Z,24.17
2018-12-11T23:52:21.892Z,33.30
2018-12-11T23:54:51.016Z,29.87
2018-12-11T23:57:20.168Z,32.33
2018-12-11T23:59:49.796Z,35.50
